sensor_id;sensor_type;location;lat;lon;timestamp;temperature;humidity
16392;DHT22;8305;-33.882;151.134;2023-05-10T00:01:16;16.10;99.90
16392;DHT22;8305;-33.882;151.134;2023-05-10T00:03:47;16.20;99.90
16392;DHT22;8305;-33.882;151.134;2023-05-10T00:06:21;16.30;99.90
16392;DHT22;8305;-33.882;151.134;2023-05-10T00:08:52;16.40;99.90
16392;DHT22;8305;-33.882;151.134;2023-05-10T00:11:23;16.50;99.90
16392;DHT22;8305;-33.882;151.134;2023-05-10T00:13:54;16.70;99.90
16392;DHT22;8305;-33.882;151.134;2023-05-10T00:16:25;16.70;99.90
16392;DHT22;8305;-33.882;151.134;2023-05-10T00:18:56;16.80;99.90
16392;DHT22;8305;-33.882;151.134;2023-05-10T00:21:30;17.00;99.90
16392;DHT22;8305;-33.882;151.134;2023-05-10T00:24:01;17.10;99.90
16392;DHT22;8305;-33.882;151.134;2023-05-10T00:26:32;17.20;99.90
16392;DHT22;8305;-33.882;151.134;2023-05-10T00:29:03;17.30;99.90
16392;DHT22;8305;-33.882;151.134;2023-05-10T00:31:35;17.40;99.90
16392;DHT22;8305;-33.882;151.134;2023-05-10T00:34:06;17.60;99.90
16392;DHT22;8305;-33.882;151.134;2023-05-10T00:36:39;17.70;99.90
16392;DHT22;8305;-33.882;151.134;2023-05-10T00:39:10;17.80;99.90
16392;DHT22;8305;-33.882;151.134;2023-05-10T00:41:41;17.90;99.90
16392;DHT22;8305;-33.882;151.134;2023-05-10T00:44:13;18.00;99.90
16392;DHT22;8305;-33.882;151.134;2023-05-10T00:46:44;18.20;99.90
16392;DHT22;8305;-33.882;151.134;2023-05-10T00:49:16;18.40;99.90
16392;DHT22;8305;-33.882;151.134;2023-05-10T00:51:49;18.50;99.90
16392;DHT22;8305;-33.882;151.134;2023-05-10T00:54:21;18.50;99.90
16392;DHT22;8305;-33.882;151.134;2023-05-10T00:56:52;18.50;99.90
16392;DHT22;8305;-33.882;151.134;2023-05-10T00:59:25;18.60;99.90
16392;DHT22;8305;-33.882;151.134;2023-05-10T01:01:56;18.60;99.90
16392;DHT22;8305;-33.882;151.134;2023-05-10T01:04:28;18.60;99.90
16392;DHT22;8305;-33.882;151.134;2023-05-10T01:07:02;18.60;99.90
16392;DHT22;8305;-33.882;151.134;2023-05-10T01:09:34;18.70;99.90
16392;DHT22;8305;-33.882;151.134;2023-05-10T01:12:06;18.80;99.90
16392;DHT22;8305;-33.882;151.134;2023-05-10T01:14:37;18.90;99.90
16392;DHT22;8305;-33.882;151.134;2023-05-10T01:17:09;18.90;99.90
16392;DHT22;8305;-33.882;151.134;2023-05-10T01:19:41;18.90;99.90
16392;DHT22;8305;-33.882;151.134;2023-05-10T01:22:29;19.00;99.90
16392;DHT22;8305;-33.882;151.134;2023-05-10T01:25:31;19.10;99.90
16392;DHT22;8305;-33.882;151.134;2023-05-10T01:28:28;19.10;99.90
16392;DHT22;8305;-33.882;151.134;2023-05-10T01:31:26;19.20;99.90
16392;DHT22;8305;-33.882;151.134;2023-05-10T01:34:05;19.30;99.90
16392;DHT22;8305;-33.882;151.134;2023-05-10T01:36:43;19.30;99.90
16392;DHT22;8305;-33.882;151.134;2023-05-10T01:39:20;19.40;99.90
16392;DHT22;8305;-33.882;151.134;2023-05-10T01:41:57;19.40;99.90
16392;DHT22;8305;-33.882;151.134;2023-05-10T01:44:34;19.50;99.90
16392;DHT22;8305;-33.882;151.134;2023-05-10T01:47:09;19.50;99.90
16392;DHT22;8305;-33.882;151.134;2023-05-10T01:49:45;19.50;99.90
16392;DHT22;8305;-33.882;151.134;2023-05-10T01:52:19;19.60;99.90
16392;DHT22;8305;-33.882;151.134;2023-05-10T01:54:55;19.60;99.90
16392;DHT22;8305;-33.882;151.134;2023-05-10T01:57:35;19.60;99.90
16392;DHT22;8305;-33.882;151.134;2023-05-10T02:00:08;19.50;99.90
16392;DHT22;8305;-33.882;151.134;2023-05-10T02:02:42;19.50;99.90
16392;DHT22;8305;-33.882;151.134;2023-05-10T02:05:18;19.60;99.90
16392;DHT22;8305;-33.882;151.134;2023-05-10T02:07:53;19.70;99.90
16392;DHT22;8305;-33.882;151.134;2023-05-10T02:10:24;19.70;99.90
16392;DHT22;8305;-33.882;151.134;2023-05-10T02:12:56;19.80;99.90
16392;DHT22;8305;-33.882;151.134;2023-05-10T02:15:30;19.80;99.90
16392;DHT22;8305;-33.882;151.134;2023-05-10T02:18:02;19.90;99.90
16392;DHT22;8305;-33.882;151.134;2023-05-10T02:20:36;19.90;99.90
16392;DHT22;8305;-33.882;151.134;2023-05-10T02:23:09;20.00;99.90
16392;DHT22;8305;-33.882;151.134;2023-05-10T02:25:41;20.00;99.90
16392;DHT22;8305;-33.882;151.134;2023-05-10T02:28:14;20.10;99.90
16392;DHT22;8305;-33.882;151.134;2023-05-10T02:30:46;20.00;99.90
16392;DHT22;8305;-33.882;151.134;2023-05-10T02:33:18;20.10;99.90
16392;DHT22;8305;-33.882;151.134;2023-05-10T02:35:52;20.00;99.90
16392;DHT22;8305;-33.882;151.134;2023-05-10T02:38:24;20.00;99.90
16392;DHT22;8305;-33.882;151.134;2023-05-10T02:40:56;20.00;99.90
16392;DHT22;8305;-33.882;151.134;2023-05-10T02:43:30;20.00;99.90
16392;DHT22;8305;-33.882;151.134;2023-05-10T02:46:03;20.10;99.90
16392;DHT22;8305;-33.882;151.134;2023-05-10T02:48:35;20.10;99.90
16392;DHT22;8305;-33.882;151.134;2023-05-10T02:51:09;20.10;99.90
16392;DHT22;8305;-33.882;151.134;2023-05-10T02:53:44;20.10;99.90
16392;DHT22;8305;-33.882;151.134;2023-05-10T02:56:23;20.10;99.90
16392;DHT22;8305;-33.882;151.134;2023-05-10T02:58:56;20.10;99.90
16392;DHT22;8305;-33.882;151.134;2023-05-10T03:01:27;20.10;99.90
16392;DHT22;8305;-33.882;151.134;2023-05-10T03:03:58;20.10;99.90
16392;DHT22;8305;-33.882;151.134;2023-05-10T03:06:31;20.10;99.90
16392;DHT22;8305;-33.882;151.134;2023-05-10T03:09:03;20.00;99.90
16392;DHT22;8305;-33.882;151.134;2023-05-10T03:11:45;20.00;99.90
16392;DHT22;8305;-33.882;151.134;2023-05-10T03:14:25;20.00;99.90
16392;DHT22;8305;-33.882;151.134;2023-05-10T03:17:04;20.00;99.90
16392;DHT22;8305;-33.882;151.134;2023-05-10T03:19:42;19.90;99.90
16392;DHT22;8305;-33.882;151.134;2023-05-10T03:22:21;19.90;99.90
16392;DHT22;8305;-33.882;151.134;2023-05-10T03:24:56;20.00;99.90
16392;DHT22;8305;-33.882;151.134;2023-05-10T03:27:28;20.00;99.90
16392;DHT22;8305;-33.882;151.134;2023-05-10T03:30:00;20.00;99.90
16392;DHT22;8305;-33.882;151.134;2023-05-10T03:32:32;20.00;99.90
16392;DHT22;8305;-33.882;151.134;2023-05-10T03:35:08;19.80;99.90
16392;DHT22;8305;-33.882;151.134;2023-05-10T03:37:41;19.80;99.90
16392;DHT22;8305;-33.882;151.134;2023-05-10T03:40:13;19.70;99.90
16392;DHT22;8305;-33.882;151.134;2023-05-10T03:42:44;19.70;99.90
16392;DHT22;8305;-33.882;151.134;2023-05-10T03:45:16;19.70;99.90
16392;DHT22;8305;-33.882;151.134;2023-05-10T03:47:47;19.70;99.90
16392;DHT22;8305;-33.882;151.134;2023-05-10T03:50:18;19.70;99.90
16392;DHT22;8305;-33.882;151.134;2023-05-10T03:52:51;19.70;99.90
16392;DHT22;8305;-33.882;151.134;2023-05-10T03:55:22;19.70;99.90
16392;DHT22;8305;-33.882;151.134;2023-05-10T03:57:54;19.60;99.90
16392;DHT22;8305;-33.882;151.134;2023-05-10T04:00:25;19.60;99.90
16392;DHT22;8305;-33.882;151.134;2023-05-10T04:02:56;19.60;99.90
16392;DHT22;8305;-33.882;151.134;2023-05-10T04:05:27;19.50;99.90
16392;DHT22;8305;-33.882;151.134;2023-05-10T04:08:00;19.50;99.90
16392;DHT22;8305;-33.882;151.134;2023-05-10T04:10:31;19.50;99.90
16392;DHT22;8305;-33.882;151.134;2023-05-10T04:13:02;19.50;99.90
16392;DHT22;8305;-33.882;151.134;2023-05-10T04:15:34;19.50;99.90
16392;DHT22;8305;-33.882;151.134;2023-05-10T04:18:05;19.50;99.90
16392;DHT22;8305;-33.882;151.134;2023-05-10T04:20:36;19.40;99.90
16392;DHT22;8305;-33.882;151.134;2023-05-10T04:23:10;19.40;99.90
16392;DHT22;8305;-33.882;151.134;2023-05-10T04:25:42;19.30;99.90
16392;DHT22;8305;-33.882;151.134;2023-05-10T04:28:13;19.30;99.90
16392;DHT22;8305;-33.882;151.134;2023-05-10T04:30:44;19.20;99.90
16392;DHT22;8305;-33.882;151.134;2023-05-10T04:33:15;19.20;99.90
16392;DHT22;8305;-33.882;151.134;2023-05-10T04:35:46;19.10;99.90
16392;DHT22;8305;-33.882;151.134;2023-05-10T04:38:20;19.10;99.90
16392;DHT22;8305;-33.882;151.134;2023-05-10T04:40:51;19.00;99.90
16392;DHT22;8305;-33.882;151.134;2023-05-10T04:43:22;19.00;99.90
16392;DHT22;8305;-33.882;151.134;2023-05-10T04:45:53;19.00;99.90
16392;DHT22;8305;-33.882;151.134;2023-05-10T04:48:27;19.00;99.90
16392;DHT22;8305;-33.882;151.134;2023-05-10T04:50:58;18.90;99.90
16392;DHT22;8305;-33.882;151.134;2023-05-10T04:53:31;18.80;99.90
16392;DHT22;8305;-33.882;151.134;2023-05-10T04:56:02;18.80;99.90
16392;DHT22;8305;-33.882;151.134;2023-05-10T04:58:33;18.80;99.90
16392;DHT22;8305;-33.882;151.134;2023-05-10T05:01:08;18.70;99.90
16392;DHT22;8305;-33.882;151.134;2023-05-10T05:03:39;18.70;99.90
16392;DHT22;8305;-33.882;151.134;2023-05-10T05:06:10;18.70;99.90
16392;DHT22;8305;-33.882;151.134;2023-05-10T05:08:43;18.70;99.90
16392;DHT22;8305;-33.882;151.134;2023-05-10T05:11:14;18.70;99.90
16392;DHT22;8305;-33.882;151.134;2023-05-10T05:13:45;18.60;99.90
16392;DHT22;8305;-33.882;151.134;2023-05-10T05:16:17;18.60;99.90
16392;DHT22;8305;-33.882;151.134;2023-05-10T05:18:48;18.60;99.90
16392;DHT22;8305;-33.882;151.134;2023-05-10T05:21:19;18.60;99.90
16392;DHT22;8305;-33.882;151.134;2023-05-10T05:23:52;18.50;99.90
16392;DHT22;8305;-33.882;151.134;2023-05-10T05:26:23;18.50;99.90
16392;DHT22;8305;-33.882;151.134;2023-05-10T05:28:54;18.50;99.90
16392;DHT22;8305;-33.882;151.134;2023-05-10T05:31:25;18.40;99.90
16392;DHT22;8305;-33.882;151.134;2023-05-10T05:33:58;18.40;99.90
16392;DHT22;8305;-33.882;151.134;2023-05-10T05:36:29;18.40;99.90
16392;DHT22;8305;-33.882;151.134;2023-05-10T05:39:02;18.40;99.90
16392;DHT22;8305;-33.882;151.134;2023-05-10T05:41:34;18.40;99.90
16392;DHT22;8305;-33.882;151.134;2023-05-10T05:44:05;18.40;99.90
16392;DHT22;8305;-33.882;151.134;2023-05-10T05:46:36;18.30;99.90
16392;DHT22;8305;-33.882;151.134;2023-05-10T05:49:07;18.30;99.90
16392;DHT22;8305;-33.882;151.134;2023-05-10T05:51:38;18.20;99.90
16392;DHT22;8305;-33.882;151.134;2023-05-10T05:54:11;18.20;99.90
16392;DHT22;8305;-33.882;151.134;2023-05-10T05:56:42;18.20;99.90
16392;DHT22;8305;-33.882;151.134;2023-05-10T05:59:13;18.20;99.90
16392;DHT22;8305;-33.882;151.134;2023-05-10T06:01:44;18.10;99.90
16392;DHT22;8305;-33.882;151.134;2023-05-10T06:04:16;18.10;99.90
16392;DHT22;8305;-33.882;151.134;2023-05-10T06:06:47;18.10;99.90
16392;DHT22;8305;-33.882;151.134;2023-05-10T06:09:20;18.00;99.90
16392;DHT22;8305;-33.882;151.134;2023-05-10T06:11:52;18.00;99.90
16392;DHT22;8305;-33.882;151.134;2023-05-10T06:14:23;18.00;99.90
16392;DHT22;8305;-33.882;151.134;2023-05-10T06:16:54;18.00;99.90
16392;DHT22;8305;-33.882;151.134;2023-05-10T06:19:27;18.00;99.90
16392;DHT22;8305;-33.882;151.134;2023-05-10T06:21:58;17.90;99.90
16392;DHT22;8305;-33.882;151.134;2023-05-10T06:24:31;17.90;99.90
16392;DHT22;8305;-33.882;151.134;2023-05-10T06:27:02;17.90;99.90
16392;DHT22;8305;-33.882;151.134;2023-05-10T06:29:34;17.90;99.90
16392;DHT22;8305;-33.882;151.134;2023-05-10T06:32:05;17.80;99.90
16392;DHT22;8305;-33.882;151.134;2023-05-10T06:34:36;17.80;99.90
16392;DHT22;8305;-33.882;151.134;2023-05-10T06:37:07;17.80;99.90
16392;DHT22;8305;-33.882;151.134;2023-05-10T06:39:40;17.70;99.90
16392;DHT22;8305;-33.882;151.134;2023-05-10T06:42:11;17.70;99.90
16392;DHT22;8305;-33.882;151.134;2023-05-10T06:44:42;17.60;99.90
16392;DHT22;8305;-33.882;151.134;2023-05-10T06:47:13;17.50;99.90
16392;DHT22;8305;-33.882;151.134;2023-05-10T06:49:45;17.50;99.90
16392;DHT22;8305;-33.882;151.134;2023-05-10T06:52:16;17.50;99.90
16392;DHT22;8305;-33.882;151.134;2023-05-10T06:54:49;17.40;99.90
16392;DHT22;8305;-33.882;151.134;2023-05-10T06:57:20;17.30;99.90
16392;DHT22;8305;-33.882;151.134;2023-05-10T06:59:51;17.30;99.90
16392;DHT22;8305;-33.882;151.134;2023-05-10T07:02:23;17.20;99.90
16392;DHT22;8305;-33.882;151.134;2023-05-10T07:04:54;17.20;99.90
16392;DHT22;8305;-33.882;151.134;2023-05-10T07:07:25;17.10;99.90
16392;DHT22;8305;-33.882;151.134;2023-05-10T07:09:58;17.10;99.90
16392;DHT22;8305;-33.882;151.134;2023-05-10T07:12:30;17.00;99.90
16392;DHT22;8305;-33.882;151.134;2023-05-10T07:15:01;16.90;99.90
16392;DHT22;8305;-33.882;151.134;2023-05-10T07:17:32;16.90;99.90
16392;DHT22;8305;-33.882;151.134;2023-05-10T07:20:03;16.90;99.90
16392;DHT22;8305;-33.882;151.134;2023-05-10T07:22:34;16.90;99.90
16392;DHT22;8305;-33.882;151.134;2023-05-10T07:25:10;16.80;99.90
16392;DHT22;8305;-33.882;151.134;2023-05-10T07:27:41;16.80;99.90
16392;DHT22;8305;-33.882;151.134;2023-05-10T07:30:13;16.70;99.90
16392;DHT22;8305;-33.882;151.134;2023-05-10T07:32:44;16.70;99.90
16392;DHT22;8305;-33.882;151.134;2023-05-10T07:35:15;16.60;99.90
16392;DHT22;8305;-33.882;151.134;2023-05-10T07:37:46;16.60;99.90
16392;DHT22;8305;-33.882;151.134;2023-05-10T07:40:20;16.60;99.90
16392;DHT22;8305;-33.882;151.134;2023-05-10T07:42:51;16.50;99.90
16392;DHT22;8305;-33.882;151.134;2023-05-10T07:45:22;16.50;99.90
16392;DHT22;8305;-33.882;151.134;2023-05-10T07:47:54;16.50;99.90
16392;DHT22;8305;-33.882;151.134;2023-05-10T07:50:25;16.50;99.90
16392;DHT22;8305;-33.882;151.134;2023-05-10T07:52:56;16.40;99.90
16392;DHT22;8305;-33.882;151.134;2023-05-10T07:55:29;16.40;99.90
16392;DHT22;8305;-33.882;151.134;2023-05-10T07:58:00;16.40;99.90
16392;DHT22;8305;-33.882;151.134;2023-05-10T08:00:31;16.30;99.90
16392;DHT22;8305;-33.882;151.134;2023-05-10T08:03:02;16.30;99.90
16392;DHT22;8305;-33.882;151.134;2023-05-10T08:05:33;16.30;99.90
16392;DHT22;8305;-33.882;151.134;2023-05-10T08:08:05;16.20;99.90
16392;DHT22;8305;-33.882;151.134;2023-05-10T08:10:38;16.20;99.90
16392;DHT22;8305;-33.882;151.134;2023-05-10T08:13:09;16.20;99.90
16392;DHT22;8305;-33.882;151.134;2023-05-10T08:15:40;16.10;99.90
16392;DHT22;8305;-33.882;151.134;2023-05-10T08:18:11;16.10;99.90
16392;DHT22;8305;-33.882;151.134;2023-05-10T08:20:42;16.10;99.90
16392;DHT22;8305;-33.882;151.134;2023-05-10T08:23:14;16.10;99.90
16392;DHT22;8305;-33.882;151.134;2023-05-10T08:25:47;16.00;99.90
16392;DHT22;8305;-33.882;151.134;2023-05-10T08:28:18;16.00;99.90
16392;DHT22;8305;-33.882;151.134;2023-05-10T08:30:49;16.00;99.90
16392;DHT22;8305;-33.882;151.134;2023-05-10T08:33:21;15.90;99.90
16392;DHT22;8305;-33.882;151.134;2023-05-10T08:35:52;15.90;99.90
16392;DHT22;8305;-33.882;151.134;2023-05-10T08:38:23;15.90;99.90
16392;DHT22;8305;-33.882;151.134;2023-05-10T08:40:57;15.90;99.90
16392;DHT22;8305;-33.882;151.134;2023-05-10T08:43:29;15.90;99.90
16392;DHT22;8305;-33.882;151.134;2023-05-10T08:46:02;15.80;99.90
16392;DHT22;8305;-33.882;151.134;2023-05-10T08:48:35;15.80;99.90
16392;DHT22;8305;-33.882;151.134;2023-05-10T08:51:07;15.70;99.90
16392;DHT22;8305;-33.882;151.134;2023-05-10T08:53:39;15.70;99.90
16392;DHT22;8305;-33.882;151.134;2023-05-10T08:56:12;15.70;99.90
16392;DHT22;8305;-33.882;151.134;2023-05-10T08:58:44;15.60;99.90
16392;DHT22;8305;-33.882;151.134;2023-05-10T09:01:17;15.50;99.90
16392;DHT22;8305;-33.882;151.134;2023-05-10T09:03:49;15.50;99.90
16392;DHT22;8305;-33.882;151.134;2023-05-10T09:06:21;15.50;99.90
16392;DHT22;8305;-33.882;151.134;2023-05-10T09:08:53;15.40;99.90
16392;DHT22;8305;-33.882;151.134;2023-05-10T09:11:26;15.40;99.90
16392;DHT22;8305;-33.882;151.134;2023-05-10T09:13:58;15.40;99.90
16392;DHT22;8305;-33.882;151.134;2023-05-10T09:16:29;15.30;99.90
16392;DHT22;8305;-33.882;151.134;2023-05-10T09:19:00;15.30;99.90
16392;DHT22;8305;-33.882;151.134;2023-05-10T09:21:31;15.30;99.90
16392;DHT22;8305;-33.882;151.134;2023-05-10T09:24:05;15.20;99.90
16392;DHT22;8305;-33.882;151.134;2023-05-10T09:26:46;15.20;99.90
16392;DHT22;8305;-33.882;151.134;2023-05-10T09:29:18;15.20;99.90
16392;DHT22;8305;-33.882;151.134;2023-05-10T09:31:50;15.10;99.90
16392;DHT22;8305;-33.882;151.134;2023-05-10T09:34:29;15.10;99.90
16392;DHT22;8305;-33.882;151.134;2023-05-10T09:37:03;15.10;99.90
16392;DHT22;8305;-33.882;151.134;2023-05-10T09:39:35;15.00;99.90
16392;DHT22;8305;-33.882;151.134;2023-05-10T09:42:09;15.00;99.90
16392;DHT22;8305;-33.882;151.134;2023-05-10T09:44:40;15.00;99.90
16392;DHT22;8305;-33.882;151.134;2023-05-10T09:47:11;15.00;99.90
16392;DHT22;8305;-33.882;151.134;2023-05-10T09:49:51;14.90;99.90
16392;DHT22;8305;-33.882;151.134;2023-05-10T09:52:25;14.90;99.90
16392;DHT22;8305;-33.882;151.134;2023-05-10T09:54:56;14.90;99.90
16392;DHT22;8305;-33.882;151.134;2023-05-10T09:57:29;14.80;99.90
16392;DHT22;8305;-33.882;151.134;2023-05-10T10:00:02;14.80;99.90
16392;DHT22;8305;-33.882;151.134;2023-05-10T10:02:33;14.80;99.90
16392;DHT22;8305;-33.882;151.134;2023-05-10T10:05:05;14.80;99.90
16392;DHT22;8305;-33.882;151.134;2023-05-10T10:07:37;14.80;99.90
16392;DHT22;8305;-33.882;151.134;2023-05-10T10:10:08;14.80;99.90
16392;DHT22;8305;-33.882;151.134;2023-05-10T10:12:43;14.70;99.90
16392;DHT22;8305;-33.882;151.134;2023-05-10T10:15:15;14.70;99.90
16392;DHT22;8305;-33.882;151.134;2023-05-10T10:17:47;14.70;99.90
16392;DHT22;8305;-33.882;151.134;2023-05-10T10:20:19;14.70;99.90
16392;DHT22;8305;-33.882;151.134;2023-05-10T10:22:51;14.60;99.90
16392;DHT22;8305;-33.882;151.134;2023-05-10T10:25:23;14.60;99.90
16392;DHT22;8305;-33.882;151.134;2023-05-10T10:28:09;14.60;99.90
16392;DHT22;8305;-33.882;151.134;2023-05-10T10:30:43;14.60;99.90
16392;DHT22;8305;-33.882;151.134;2023-05-10T10:33:38;14.50;99.90
16392;DHT22;8305;-33.882;151.134;2023-05-10T10:36:11;14.50;99.90
16392;DHT22;8305;-33.882;151.134;2023-05-10T10:39:01;14.50;99.90
16392;DHT22;8305;-33.882;151.134;2023-05-10T10:41:34;14.50;99.90
16392;DHT22;8305;-33.882;151.134;2023-05-10T10:44:26;14.40;99.90
16392;DHT22;8305;-33.882;151.134;2023-05-10T10:47:01;14.40;99.90
16392;DHT22;8305;-33.882;151.134;2023-05-10T10:49:37;14.40;99.90
16392;DHT22;8305;-33.882;151.134;2023-05-10T10:52:22;14.40;99.90
16392;DHT22;8305;-33.882;151.134;2023-05-10T10:55:00;14.40;99.90
16392;DHT22;8305;-33.882;151.134;2023-05-10T10:57:42;14.40;99.90
16392;DHT22;8305;-33.882;151.134;2023-05-10T11:00:26;14.30;99.90
16392;DHT22;8305;-33.882;151.134;2023-05-10T11:03:00;14.30;99.90
16392;DHT22;8305;-33.882;151.134;2023-05-10T11:05:41;14.30;99.90
16392;DHT22;8305;-33.882;151.134;2023-05-10T11:08:17;14.30;99.90
16392;DHT22;8305;-33.882;151.134;2023-05-10T11:11:04;14.30;99.90
16392;DHT22;8305;-33.882;151.134;2023-05-10T11:13:39;14.20;99.90
16392;DHT22;8305;-33.882;151.134;2023-05-10T11:16:17;14.20;99.90
16392;DHT22;8305;-33.882;151.134;2023-05-10T11:18:58;14.20;99.90
16392;DHT22;8305;-33.882;151.134;2023-05-10T11:21:30;14.20;99.90
16392;DHT22;8305;-33.882;151.134;2023-05-10T11:24:02;14.20;99.90
16392;DHT22;8305;-33.882;151.134;2023-05-10T11:26:43;14.10;99.90
16392;DHT22;8305;-33.882;151.134;2023-05-10T11:29:15;14.10;99.90
16392;DHT22;8305;-33.882;151.134;2023-05-10T11:31:49;14.10;99.90
16392;DHT22;8305;-33.882;151.134;2023-05-10T11:34:28;14.10;99.90
16392;DHT22;8305;-33.882;151.134;2023-05-10T11:37:01;14.10;99.90
16392;DHT22;8305;-33.882;151.134;2023-05-10T11:39:32;14.00;99.90
16392;DHT22;8305;-33.882;151.134;2023-05-10T11:42:03;14.00;99.90
16392;DHT22;8305;-33.882;151.134;2023-05-10T11:44:37;14.00;99.90
16392;DHT22;8305;-33.882;151.134;2023-05-10T11:47:10;14.00;99.90
16392;DHT22;8305;-33.882;151.134;2023-05-10T11:49:45;14.00;99.90
16392;DHT22;8305;-33.882;151.134;2023-05-10T11:52:17;14.00;99.90
16392;DHT22;8305;-33.882;151.134;2023-05-10T11:54:53;14.00;99.90
16392;DHT22;8305;-33.882;151.134;2023-05-10T11:57:28;13.90;99.90
16392;DHT22;8305;-33.882;151.134;2023-05-10T11:59:59;13.90;99.90
16392;DHT22;8305;-33.882;151.134;2023-05-10T12:02:33;13.90;99.90
16392;DHT22;8305;-33.882;151.134;2023-05-10T12:05:05;13.80;99.90
16392;DHT22;8305;-33.882;151.134;2023-05-10T12:07:37;13.80;99.90
16392;DHT22;8305;-33.882;151.134;2023-05-10T12:10:09;13.80;99.90
16392;DHT22;8305;-33.882;151.134;2023-05-10T12:12:42;13.80;99.90
16392;DHT22;8305;-33.882;151.134;2023-05-10T12:15:18;13.80;99.90
16392;DHT22;8305;-33.882;151.134;2023-05-10T12:17:51;13.70;99.90
16392;DHT22;8305;-33.882;151.134;2023-05-10T12:20:23;13.70;99.90
16392;DHT22;8305;-33.882;151.134;2023-05-10T12:22:55;13.70;99.90
16392;DHT22;8305;-33.882;151.134;2023-05-10T12:25:32;13.70;99.90
16392;DHT22;8305;-33.882;151.134;2023-05-10T12:28:04;13.70;99.90
16392;DHT22;8305;-33.882;151.134;2023-05-10T12:30:36;13.60;99.90
16392;DHT22;8305;-33.882;151.134;2023-05-10T12:33:13;13.60;99.90
16392;DHT22;8305;-33.882;151.134;2023-05-10T12:35:48;13.60;99.90
16392;DHT22;8305;-33.882;151.134;2023-05-10T12:38:27;13.60;99.90
16392;DHT22;8305;-33.882;151.134;2023-05-10T12:40:59;13.50;99.90
16392;DHT22;8305;-33.882;151.134;2023-05-10T12:43:31;13.50;99.90
16392;DHT22;8305;-33.882;151.134;2023-05-10T12:46:06;13.50;99.90
16392;DHT22;8305;-33.882;151.134;2023-05-10T12:48:40;13.40;99.90
16392;DHT22;8305;-33.882;151.134;2023-05-10T12:51:12;13.40;99.90
16392;DHT22;8305;-33.882;151.134;2023-05-10T12:53:45;13.30;99.90
16392;DHT22;8305;-33.882;151.134;2023-05-10T12:56:16;13.30;99.90
16392;DHT22;8305;-33.882;151.134;2023-05-10T12:58:50;13.30;99.90
16392;DHT22;8305;-33.882;151.134;2023-05-10T13:01:21;13.30;99.90
16392;DHT22;8305;-33.882;151.134;2023-05-10T13:03:54;13.20;99.90
16392;DHT22;8305;-33.882;151.134;2023-05-10T13:06:25;13.20;99.90
16392;DHT22;8305;-33.882;151.134;2023-05-10T13:08:56;13.20;99.90
16392;DHT22;8305;-33.882;151.134;2023-05-10T13:11:27;13.20;99.90
16392;DHT22;8305;-33.882;151.134;2023-05-10T13:13:59;13.20;99.90
16392;DHT22;8305;-33.882;151.134;2023-05-10T13:16:31;13.20;99.90
16392;DHT22;8305;-33.882;151.134;2023-05-10T13:19:04;13.20;99.90
16392;DHT22;8305;-33.882;151.134;2023-05-10T13:21:35;13.20;99.90
16392;DHT22;8305;-33.882;151.134;2023-05-10T13:24:06;13.20;99.90
16392;DHT22;8305;-33.882;151.134;2023-05-10T13:26:38;13.10;99.90
16392;DHT22;8305;-33.882;151.134;2023-05-10T13:29:09;13.10;99.90
16392;DHT22;8305;-33.882;151.134;2023-05-10T13:31:40;13.10;99.90
16392;DHT22;8305;-33.882;151.134;2023-05-10T13:34:13;13.10;99.90
16392;DHT22;8305;-33.882;151.134;2023-05-10T13:36:48;13.00;99.90
16392;DHT22;8305;-33.882;151.134;2023-05-10T13:39:19;13.00;99.90
16392;DHT22;8305;-33.882;151.134;2023-05-10T13:41:50;13.00;99.90
16392;DHT22;8305;-33.882;151.134;2023-05-10T13:44:21;12.90;99.90
16392;DHT22;8305;-33.882;151.134;2023-05-10T13:46:52;12.90;99.90
16392;DHT22;8305;-33.882;151.134;2023-05-10T13:49:26;12.90;99.90
16392;DHT22;8305;-33.882;151.134;2023-05-10T13:51:57;12.90;99.90
16392;DHT22;8305;-33.882;151.134;2023-05-10T13:54:33;12.80;99.90
16392;DHT22;8305;-33.882;151.134;2023-05-10T13:57:05;12.80;99.90
16392;DHT22;8305;-33.882;151.134;2023-05-10T13:59:36;12.80;99.90
16392;DHT22;8305;-33.882;151.134;2023-05-10T14:02:08;12.80;99.90
16392;DHT22;8305;-33.882;151.134;2023-05-10T14:04:42;12.70;99.90
16392;DHT22;8305;-33.882;151.134;2023-05-10T14:07:13;12.70;99.90
16392;DHT22;8305;-33.882;151.134;2023-05-10T14:09:45;12.70;99.90
16392;DHT22;8305;-33.882;151.134;2023-05-10T14:12:16;12.60;99.90
16392;DHT22;8305;-33.882;151.134;2023-05-10T14:14:47;12.60;99.90
16392;DHT22;8305;-33.882;151.134;2023-05-10T14:17:19;12.60;99.90
16392;DHT22;8305;-33.882;151.134;2023-05-10T14:19:52;12.60;99.90
16392;DHT22;8305;-33.882;151.134;2023-05-10T14:22:24;12.60;99.90
16392;DHT22;8305;-33.882;151.134;2023-05-10T14:24:55;12.60;99.90
16392;DHT22;8305;-33.882;151.134;2023-05-10T14:27:26;12.60;99.90
16392;DHT22;8305;-33.882;151.134;2023-05-10T14:29:57;12.60;99.90
16392;DHT22;8305;-33.882;151.134;2023-05-10T14:32:28;12.60;99.90
16392;DHT22;8305;-33.882;151.134;2023-05-10T14:35:01;12.50;99.90
16392;DHT22;8305;-33.882;151.134;2023-05-10T14:37:33;12.50;99.90
16392;DHT22;8305;-33.882;151.134;2023-05-10T14:40:05;12.50;99.90
16392;DHT22;8305;-33.882;151.134;2023-05-10T14:42:37;12.50;99.90
16392;DHT22;8305;-33.882;151.134;2023-05-10T14:45:08;12.50;99.90
16392;DHT22;8305;-33.882;151.134;2023-05-10T14:47:40;12.50;99.90
16392;DHT22;8305;-33.882;151.134;2023-05-10T14:50:13;12.50;99.90
16392;DHT22;8305;-33.882;151.134;2023-05-10T14:52:44;12.50;99.90
16392;DHT22;8305;-33.882;151.134;2023-05-10T14:55:16;12.50;99.90
16392;DHT22;8305;-33.882;151.134;2023-05-10T14:57:47;12.60;99.90
16392;DHT22;8305;-33.882;151.134;2023-05-10T15:00:19;12.60;99.90
16392;DHT22;8305;-33.882;151.134;2023-05-10T15:02:50;12.60;99.90
16392;DHT22;8305;-33.882;151.134;2023-05-10T15:05:23;12.60;99.90
16392;DHT22;8305;-33.882;151.134;2023-05-10T15:11:49;12.60;99.90
16392;DHT22;8305;-33.882;151.134;2023-05-10T15:14:20;12.50;99.90
16392;DHT22;8305;-33.882;151.134;2023-05-10T15:16:51;12.50;99.90
16392;DHT22;8305;-33.882;151.134;2023-05-10T15:19:23;12.50;99.90
16392;DHT22;8305;-33.882;151.134;2023-05-10T15:21:56;12.50;99.90
16392;DHT22;8305;-33.882;151.134;2023-05-10T15:24:27;12.50;99.90
16392;DHT22;8305;-33.882;151.134;2023-05-10T15:26:58;12.50;99.90
16392;DHT22;8305;-33.882;151.134;2023-05-10T15:29:30;12.50;99.90
16392;DHT22;8305;-33.882;151.134;2023-05-10T15:32:02;12.40;99.90
16392;DHT22;8305;-33.882;151.134;2023-05-10T15:34:34;12.40;99.90
16392;DHT22;8305;-33.882;151.134;2023-05-10T15:37:08;12.40;99.90
16392;DHT22;8305;-33.882;151.134;2023-05-10T15:39:40;12.40;99.90
16392;DHT22;8305;-33.882;151.134;2023-05-10T15:42:11;12.40;99.90